Columbia — WYR2092 — position and weather

sailwx.info

Track history (hours):
 
Tides and Currents Weather Stations Pressure Air Temp Water Temp Dewpoint Dewpoint Depression Visibility Wind Speed Wind Dir Waves Ship Positions

Columbia

Owner: ALASKA, STATE OF, ANCHORAGE, AK. More information available from US FCC via Universal Licensing System and Coast Guard Vessel Documentation Center.

Last reported at 2018-Jul-21 23:45 UTC. Time now 2018-Jul-22 03:22 UTC.
Position N 52°36' W 128°28'.

Type: Ship. MMSI: 367144000.

Date/timePositionNaut miles runAvg speedWind from/ knotsBaromVisibWave heightAir tempDewpointWater temp
2018-Jul-21 23:45N 52°36' W 128°28'516.2
2018-Jul-21 23:28N 52°31' W 128°28'715.4
2018-Jul-21 23:00N 52°24' W 128°30'816.0
2018-Jul-21 22:31N 52°16' W 128°32'917.1
2018-Jul-21 22:00N 52°15' W 128°18'816.0
2018-Jul-21 21:30N 52°11' W 128°06'4 7.5
2018-Jul-21 21:00N 52°08' W 128°08'713.0
2018-Jul-21 20:29N 52°04' W 127°58'714.4
2018-Jul-21 20:00N 51°58' W 127°56'816.2
2018-Jul-21 19:30N 51°50' W 127°55'816.5
2018-Jul-21 19:00N 51°41' W 127°55'816.2
2018-Jul-21 18:30N 51°33' W 127°52'816.3
2018-Jul-21 18:00N 51°25' W 127°51'816.3
2018-Jul-21 17:30N 51°17' W 127°52'815.6
2018-Jul-21 17:00N 51°09' W 127°50'816.1
2018-Jul-21 16:30N 51°04' W 127°40'816.1
2018-Jul-21 16:00N 50°58' W 127°31'715.0
2018-Jul-21 15:30N 50°54' W 127°22'815.2
2018-Jul-21 15:00N 50°50' W 127°11'816.4
2018-Jul-21 14:30N 50°45' W 127°01'1716.0
2018-Jul-21 13:26N 50°33' W 126°41'3617.5
2018-Jul-21 11:22N 50°23' W 125°47'1018.9
2018-Jul-21 10:52N 50°21' W 125°32'616.6
2018-Jul-21 10:30N 50°18' W 125°25'919.1
2018-Jul-21 10:01N 50°08' W 125°21'1019.5
2018-Jul-21 09:31N 50°01' W 125°13'917.9
2018-Jul-21 09:00N 49°54' W 125°03'917.2
2018-Jul-21 08:31N 49°48' W 124°54'917.2
2018-Jul-21 08:01N 49°42' W 124°44'917.3
2018-Jul-21 07:30N 49°35' W 124°35'1017.3
2018-Jul-21 06:56N 49°29' W 124°24'817.0
2018-Jul-21 06:29N 49°25' W 124°14'3416.8
2018-Jul-21 04:28N 49°09' W 123°28'816.9
2018-Jul-21 04:00N 49°03' W 123°20'816.1
2018-Jul-21 03:30N 48°57' W 123°11'816.0
2018-Jul-21 03:00N 48°52' W 123°01'1215.8
2018-Jul-21 02:14N 48°46' W 122°46'416.3
2018-Jul-21 02:00N 48°42' W 122°43'714.9
2018-Jul-21 01:30N 48°38' W 122°34'5 0.6
2018-Jul-20 15:50N 48°43' W 122°31'0 0.0
2018-Jul-20 14:40N 48°43' W 122°31'0 0.7
2018-Jul-20 14:30N 48°43' W 122°31'611.5
2018-Jul-20 14:00N 48°38' W 122°35'713.7
2018-Jul-20 13:30N 48°41' W 122°44'814.9
2018-Jul-20 12:57N 48°47' W 122°53'716.2
2018-Jul-20 12:29N 48°51' W 123°02'815.3
2018-Jul-20 11:59N 48°56' W 123°11'715.3
2018-Jul-20 11:30N 49°01' W 123°19'815.3
2018-Jul-20 10:59N 49°06' W 123°28'915.3
2018-Jul-20 10:23N 49°13' W 123°38'615.2
2018-Jul-20 10:00N 49°18' W 123°44'815.2
2018-Jul-20 09:29N 49°23' W 123°52'815.1
2018-Jul-20 08:58N 49°23' W 124°04'715.3
2018-Jul-20 08:30N 49°25' W 124°14'814.8
2018-Jul-20 07:59N 49°29' W 124°25'715.4
2018-Jul-20 07:30N 49°34' W 124°33'815.4
2018-Jul-20 07:00N 49°39' W 124°41'815.4
2018-Jul-20 06:30N 49°45' W 124°50'815.4
2018-Jul-20 06:00N 49°50' W 124°58'815.3
2018-Jul-20 05:30N 49°56' W 125°06'613.0
2018-Jul-20 05:00N 50°01' W 125°13'713.2
2018-Jul-20 04:30N 50°06' W 125°18'917.8
2018-Jul-20 04:00N 50°15' W 125°23'813.6
2018-Jul-20 03:27N 50°21' W 125°30'1115.6
2018-Jul-20 02:46N 50°22' W 125°47'3315.7
2018-Jul-20 00:40N 50°31' W 126°37'414.1
2018-Jul-20 00:23N 50°34' W 126°41'615.9
2018-Jul-20 00:00N 50°38' W 126°48'816.0
2018-Jul-19 23:29N 50°43' W 126°58'815.9
2018-Jul-19 23:00N 50°48' W 127°07'815.9
2018-Jul-19 22:30N 50°52' W 127°18'714.0
2018-Jul-19 22:00N 50°56' W 127°27'816.0
2018-Jul-19 21:30N 51°02' W 127°37'816.6
2018-Jul-19 21:00N 51°07' W 127°47'917.1
2018-Jul-19 20:31N 51°15' W 127°53'816.4
2018-Jul-19 20:00N 51°23' W 127°51'917.4
2018-Jul-19 19:30N 51°31' W 127°52'917.7
2018-Jul-19 19:01N 51°40' W 127°54'917.3
2018-Jul-19 18:31N 51°49' W 127°56'917.6
2018-Jul-19 18:01N 51°58' W 127°56'814.8
2018-Jul-19 17:30N 52°05' W 127°60'612.8
2018-Jul-19 17:00N 52°09' W 128°08'3 6.9
2018-Jul-19 16:30N 52°12' W 128°07'816.2
2018-Jul-19 16:00N 52°15' W 128°19'715.0
2018-Jul-19 15:31N 52°19' W 128°30'715.0
2018-Jul-19 15:00N 52°26' W 128°28'815.8
2018-Jul-19 14:30N 52°34' W 128°29'8214.9
2018-Jul-19 08:59N 53°41' W 129°47'917.2
2018-Jul-19 08:29N 53°48' W 129°57'817.1
2018-Jul-19 08:00N 53°54' W 130°07'815.1
2018-Jul-19 07:30N 54°00' W 130°13'816.6
2018-Jul-19 07:01N 54°07' W 130°22'816.5
2018-Jul-19 06:30N 54°13' W 130°30'816.7
2018-Jul-19 06:00N 54°21' W 130°36'817.0
2018-Jul-19 05:31N 54°29' W 130°39'815.8
2018-Jul-19 04:59N 54°37' W 130°43'817.0
2018-Jul-19 04:30N 54°44' W 130°52'  
2018-Jul-15 11:53N 54°50' W 131°00'816.1
2018-Jul-15 11:21N 54°44' W 130°52'515.4
2018-Jul-15 11:01N 54°39' W 130°46'816.1
2018-Jul-15 10:30N 54°32' W 130°39'816.2
2018-Jul-15 10:00N 54°24' W 130°37'815.9
2018-Jul-15 09:30N 54°17' W 130°33'816.8
2018-Jul-15 09:00N 54°10' W 130°25'816.7
2018-Jul-15 08:30N 54°03' W 130°16'816.9
2018-Jul-15 08:00N 53°56' W 130°11'816.7
2018-Jul-15 07:30N 53°50' W 130°01'816.7
2018-Jul-15 07:00N 53°44' W 129°51'7615.0
2018-Jul-15 01:56N 52°43' W 128°34'714.7
2018-Jul-15 01:27N 52°37' W 128°30'817.4
2018-Jul-15 01:00N 52°29' W 128°27'816.8
2018-Jul-15 00:31N 52°21' W 128°32'713.5
2018-Jul-15 00:00N 52°16' W 128°26'917.8
2018-Jul-14 23:29N 52°14' W 128°11'4 8.9
2018-Jul-14 23:00N 52°10' W 128°08'4 8.7
2018-Jul-14 22:30N 52°06' W 128°07'815.2
2018-Jul-14 22:00N 52°03' W 127°56'917.4
2018-Jul-14 21:30N 51°54' W 127°56'917.5
2018-Jul-14 21:00N 51°45' W 127°55'917.6
2018-Jul-14 20:30N 51°36' W 127°53'917.8
2018-Jul-14 20:00N 51°28' W 127°51'917.6
2018-Jul-14 19:30N 51°19' W 127°52'816.7
2018-Jul-14 19:01N 51°11' W 127°50'815.2
2018-Jul-14 18:30N 51°05' W 127°42'815.8
2018-Jul-14 17:59N 50°59' W 127°33'816.2
2018-Jul-14 17:30N 50°54' W 127°23'816.2
2018-Jul-14 17:00N 50°50' W 127°12'816.6
2018-Jul-14 16:30N 50°45' W 127°01'816.2
2018-Jul-14 15:58N 50°40' W 126°51'1017.2
2018-Jul-14 15:24N 50°32' W 126°41'716.7
2018-Jul-14 15:00N 50°30' W 126°31'2916.2
2018-Jul-14 13:13N 50°23' W 125°47'1315.8
2018-Jul-14 12:23N 50°20' W 125°26'615.0
2018-Jul-14 12:00N 50°15' W 125°23'714.4
2018-Jul-14 11:30N 50°08' W 125°21'611.1
2018-Jul-14 11:00N 50°04' W 125°15'510.6
2018-Jul-14 10:29N 49°59' W 125°12'714.0
2018-Jul-14 10:00N 49°54' W 125°04'714.9
2018-Jul-14 09:30N 49°49' W 124°56'814.8
2018-Jul-14 08:59N 49°44' W 124°47'714.8
2018-Jul-14 08:30N 49°39' W 124°40'714.7
2018-Jul-14 08:00N 49°33' W 124°32'714.8
2018-Jul-14 07:30N 49°28' W 124°24'714.2
2018-Jul-14 07:00N 49°25' W 124°14'1014.9
2018-Jul-14 06:20N 49°23' W 123°59'1814.9
2018-Jul-14 05:06N 49°13' W 123°35'315.8
2018-Jul-14 04:54N 49°11' W 123°32'715.5
2018-Jul-14 04:29N 49°06' W 123°24'714.8
2018-Jul-14 04:00N 49°01' W 123°17'714.5
2018-Jul-14 03:31N 48°57' W 123°09'814.7
2018-Jul-14 03:00N 48°52' W 122°60'815.7
2018-Jul-14 02:28N 48°47' W 122°50'715.1
2018-Jul-14 02:00N 48°41' W 122°43'612.7
2018-Jul-14 01:30N 48°39' W 122°34'5 2.2
2018-Jul-13 23:24N 48°43' W 122°31'0 0.0
2018-Jul-13 23:00N 48°43' W 122°31'0 0.0
2018-Jul-13 22:30N 48°43' W 122°31'0 0.0
2018-Jul-13 21:48N 48°43' W 122°31'0 0.0
2018-Jul-13 19:30N 48°43' W 122°31'0 0.0
2018-Jul-13 18:45N 48°43' W 122°31'0 1.3
2018-Jul-13 18:29N 48°44' W 122°31'2 5.2
2018-Jul-13 18:00N 48°41' W 122°33'  
Track history (hours):
 
Tides and Currents Weather Stations Pressure Air Temp Water Temp Dewpoint Dewpoint Depression Visibility Wind Speed Wind Dir Waves Ship Positions

Columbia

Owner: ALASKA, STATE OF, ANCHORAGE, AK. More information available from US FCC via Universal Licensing System and Coast Guard Vessel Documentation Center.

Last reported at 2018-Jul-21 23:45 UTC. Time now 2018-Jul-22 03:22 UTC.
Position N 52°36' W 128°28'.

Type: Ship. MMSI: 367144000.

Date/timePositionNaut miles runAvg speedWind from/ knotsBaromVisibWave heightAir tempDewpointWater temp
2018-Jul-21 23:45N 52°36' W 128°28'516.2
2018-Jul-21 23:28N 52°31' W 128°28'715.4
2018-Jul-21 23:00N 52°24' W 128°30'816.0
2018-Jul-21 22:31N 52°16' W 128°32'917.1
2018-Jul-21 22:00N 52°15' W 128°18'816.0
2018-Jul-21 21:30N 52°11' W 128°06'4 7.5
2018-Jul-21 21:00N 52°08' W 128°08'713.0
2018-Jul-21 20:29N 52°04' W 127°58'714.4
2018-Jul-21 20:00N 51°58' W 127°56'816.2
2018-Jul-21 19:30N 51°50' W 127°55'816.5
2018-Jul-21 19:00N 51°41' W 127°55'816.2
2018-Jul-21 18:30N 51°33' W 127°52'816.3
2018-Jul-21 18:00N 51°25' W 127°51'816.3
2018-Jul-21 17:30N 51°17' W 127°52'815.6
2018-Jul-21 17:00N 51°09' W 127°50'816.1
2018-Jul-21 16:30N 51°04' W 127°40'816.1
2018-Jul-21 16:00N 50°58' W 127°31'715.0
2018-Jul-21 15:30N 50°54' W 127°22'815.2
2018-Jul-21 15:00N 50°50' W 127°11'816.4
2018-Jul-21 14:30N 50°45' W 127°01'1716.0
2018-Jul-21 13:26N 50°33' W 126°41'3617.5
2018-Jul-21 11:22N 50°23' W 125°47'1018.9
2018-Jul-21 10:52N 50°21' W 125°32'616.6
2018-Jul-21 10:30N 50°18' W 125°25'919.1
2018-Jul-21 10:01N 50°08' W 125°21'1019.5
2018-Jul-21 09:31N 50°01' W 125°13'917.9
2018-Jul-21 09:00N 49°54' W 125°03'917.2
2018-Jul-21 08:31N 49°48' W 124°54'917.2
2018-Jul-21 08:01N 49°42' W 124°44'917.3
2018-Jul-21 07:30N 49°35' W 124°35'1017.3
2018-Jul-21 06:56N 49°29' W 124°24'817.0
2018-Jul-21 06:29N 49°25' W 124°14'3416.8
2018-Jul-21 04:28N 49°09' W 123°28'816.9
2018-Jul-21 04:00N 49°03' W 123°20'816.1
2018-Jul-21 03:30N 48°57' W 123°11'816.0
2018-Jul-21 03:00N 48°52' W 123°01'1215.8
2018-Jul-21 02:14N 48°46' W 122°46'416.3
2018-Jul-21 02:00N 48°42' W 122°43'714.9
2018-Jul-21 01:30N 48°38' W 122°34'5 0.6
2018-Jul-20 15:50N 48°43' W 122°31'0 0.0
2018-Jul-20 14:40N 48°43' W 122°31'0 0.7
2018-Jul-20 14:30N 48°43' W 122°31'611.5
2018-Jul-20 14:00N 48°38' W 122°35'713.7
2018-Jul-20 13:30N 48°41' W 122°44'814.9
2018-Jul-20 12:57N 48°47' W 122°53'716.2
2018-Jul-20 12:29N 48°51' W 123°02'815.3
2018-Jul-20 11:59N 48°56' W 123°11'715.3
2018-Jul-20 11:30N 49°01' W 123°19'815.3
2018-Jul-20 10:59N 49°06' W 123°28'915.3
2018-Jul-20 10:23N 49°13' W 123°38'615.2
2018-Jul-20 10:00N 49°18' W 123°44'815.2
2018-Jul-20 09:29N 49°23' W 123°52'815.1
2018-Jul-20 08:58N 49°23' W 124°04'715.3
2018-Jul-20 08:30N 49°25' W 124°14'814.8
2018-Jul-20 07:59N 49°29' W 124°25'715.4
2018-Jul-20 07:30N 49°34' W 124°33'815.4
2018-Jul-20 07:00N 49°39' W 124°41'815.4
2018-Jul-20 06:30N 49°45' W 124°50'815.4
2018-Jul-20 06:00N 49°50' W 124°58'815.3
2018-Jul-20 05:30N 49°56' W 125°06'613.0
2018-Jul-20 05:00N 50°01' W 125°13'713.2
2018-Jul-20 04:30N 50°06' W 125°18'917.8
2018-Jul-20 04:00N 50°15' W 125°23'813.6
2018-Jul-20 03:27N 50°21' W 125°30'1115.6
2018-Jul-20 02:46N 50°22' W 125°47'3315.7
2018-Jul-20 00:40N 50°31' W 126°37'414.1
2018-Jul-20 00:23N 50°34' W 126°41'615.9
2018-Jul-20 00:00N 50°38' W 126°48'816.0
2018-Jul-19 23:29N 50°43' W 126°58'815.9
2018-Jul-19 23:00N 50°48' W 127°07'815.9
2018-Jul-19 22:30N 50°52' W 127°18'714.0
2018-Jul-19 22:00N 50°56' W 127°27'816.0
2018-Jul-19 21:30N 51°02' W 127°37'816.6
2018-Jul-19 21:00N 51°07' W 127°47'917.1
2018-Jul-19 20:31N 51°15' W 127°53'816.4
2018-Jul-19 20:00N 51°23' W 127°51'917.4
2018-Jul-19 19:30N 51°31' W 127°52'917.7
2018-Jul-19 19:01N 51°40' W 127°54'917.3
2018-Jul-19 18:31N 51°49' W 127°56'917.6
2018-Jul-19 18:01N 51°58' W 127°56'814.8
2018-Jul-19 17:30N 52°05' W 127°60'612.8
2018-Jul-19 17:00N 52°09' W 128°08'3 6.9
2018-Jul-19 16:30N 52°12' W 128°07'816.2
2018-Jul-19 16:00N 52°15' W 128°19'715.0
2018-Jul-19 15:31N 52°19' W 128°30'715.0
2018-Jul-19 15:00N 52°26' W 128°28'815.8
2018-Jul-19 14:30N 52°34' W 128°29'8214.9
2018-Jul-19 08:59N 53°41' W 129°47'917.2
2018-Jul-19 08:29N 53°48' W 129°57'817.1
2018-Jul-19 08:00N 53°54' W 130°07'815.1
2018-Jul-19 07:30N 54°00' W 130°13'816.6
2018-Jul-19 07:01N 54°07' W 130°22'816.5
2018-Jul-19 06:30N 54°13' W 130°30'816.7
2018-Jul-19 06:00N 54°21' W 130°36'817.0
2018-Jul-19 05:31N 54°29' W 130°39'815.8
2018-Jul-19 04:59N 54°37' W 130°43'817.0
2018-Jul-19 04:30N 54°44' W 130°52'  
2018-Jul-15 11:53N 54°50' W 131°00'816.1
2018-Jul-15 11:21N 54°44' W 130°52'515.4
2018-Jul-15 11:01N 54°39' W 130°46'816.1
2018-Jul-15 10:30N 54°32' W 130°39'816.2
2018-Jul-15 10:00N 54°24' W 130°37'815.9
2018-Jul-15 09:30N 54°17' W 130°33'816.8
2018-Jul-15 09:00N 54°10' W 130°25'816.7
2018-Jul-15 08:30N 54°03' W 130°16'816.9
2018-Jul-15 08:00N 53°56' W 130°11'816.7
2018-Jul-15 07:30N 53°50' W 130°01'816.7
2018-Jul-15 07:00N 53°44' W 129°51'7615.0
2018-Jul-15 01:56N 52°43' W 128°34'714.7
2018-Jul-15 01:27N 52°37' W 128°30'817.4
2018-Jul-15 01:00N 52°29' W 128°27'816.8
2018-Jul-15 00:31N 52°21' W 128°32'713.5
2018-Jul-15 00:00N 52°16' W 128°26'917.8
2018-Jul-14 23:29N 52°14' W 128°11'4 8.9
2018-Jul-14 23:00N 52°10' W 128°08'4 8.7
2018-Jul-14 22:30N 52°06' W 128°07'815.2
2018-Jul-14 22:00N 52°03' W 127°56'917.4
2018-Jul-14 21:30N 51°54' W 127°56'917.5
2018-Jul-14 21:00N 51°45' W 127°55'917.6
2018-Jul-14 20:30N 51°36' W 127°53'917.8
2018-Jul-14 20:00N 51°28' W 127°51'917.6
2018-Jul-14 19:30N 51°19' W 127°52'816.7
2018-Jul-14 19:01N 51°11' W 127°50'815.2
2018-Jul-14 18:30N 51°05' W 127°42'815.8
2018-Jul-14 17:59N 50°59' W 127°33'816.2
2018-Jul-14 17:30N 50°54' W 127°23'816.2
2018-Jul-14 17:00N 50°50' W 127°12'816.6
2018-Jul-14 16:30N 50°45' W 127°01'816.2
2018-Jul-14 15:58N 50°40' W 126°51'1017.2
2018-Jul-14 15:24N 50°32' W 126°41'716.7
2018-Jul-14 15:00N 50°30' W 126°31'2916.2
2018-Jul-14 13:13N 50°23' W 125°47'1315.8
2018-Jul-14 12:23N 50°20' W 125°26'615.0
2018-Jul-14 12:00N 50°15' W 125°23'714.4
2018-Jul-14 11:30N 50°08' W 125°21'611.1
2018-Jul-14 11:00N 50°04' W 125°15'510.6
2018-Jul-14 10:29N 49°59' W 125°12'714.0
2018-Jul-14 10:00N 49°54' W 125°04'714.9
2018-Jul-14 09:30N 49°49' W 124°56'814.8
2018-Jul-14 08:59N 49°44' W 124°47'714.8
2018-Jul-14 08:30N 49°39' W 124°40'714.7
2018-Jul-14 08:00N 49°33' W 124°32'714.8
2018-Jul-14 07:30N 49°28' W 124°24'714.2
2018-Jul-14 07:00N 49°25' W 124°14'1014.9
2018-Jul-14 06:20N 49°23' W 123°59'1814.9
2018-Jul-14 05:06N 49°13' W 123°35'315.8
2018-Jul-14 04:54N 49°11' W 123°32'715.5
2018-Jul-14 04:29N 49°06' W 123°24'714.8
2018-Jul-14 04:00N 49°01' W 123°17'714.5
2018-Jul-14 03:31N 48°57' W 123°09'814.7
2018-Jul-14 03:00N 48°52' W 122°60'815.7
2018-Jul-14 02:28N 48°47' W 122°50'715.1
2018-Jul-14 02:00N 48°41' W 122°43'612.7
2018-Jul-14 01:30N 48°39' W 122°34'5 2.2
2018-Jul-13 23:24N 48°43' W 122°31'0 0.0
2018-Jul-13 23:00N 48°43' W 122°31'0 0.0
2018-Jul-13 22:30N 48°43' W 122°31'0 0.0
2018-Jul-13 21:48N 48°43' W 122°31'0 0.0
2018-Jul-13 19:30N 48°43' W 122°31'0 0.0
2018-Jul-13 18:45N 48°43' W 122°31'0 1.3
2018-Jul-13 18:29N 48°44' W 122°31'2 5.2
2018-Jul-13 18:00N 48°41' W 122°33'  

Dump ship's entire track history